sensor_id;sensor_type;location;lat;lon;timestamp;P1;durP1;ratioP1;P2;durP2;ratioP2
3141;SDS011;1581;51.568;6.998;2024-03-29T00:01:24;0.87;;;0.70;;
3141;SDS011;1581;51.568;6.998;2024-03-29T00:03:51;3.70;;;0.93;;
3141;SDS011;1581;51.568;6.998;2024-03-29T00:06:17;1.33;;;0.90;;
3141;SDS011;1581;51.568;6.998;2024-03-29T00:08:45;0.77;;;0.73;;
3141;SDS011;1581;51.568;6.998;2024-03-29T00:11:11;3.23;;;1.00;;
3141;SDS011;1581;51.568;6.998;2024-03-29T00:13:38;2.27;;;1.20;;
3141;SDS011;1581;51.568;6.998;2024-03-29T00:16:04;1.10;;;0.80;;
3141;SDS011;1581;51.568;6.998;2024-03-29T00:18:31;1.60;;;1.17;;
3141;SDS011;1581;51.568;6.998;2024-03-29T00:20:57;2.80;;;0.80;;
3141;SDS011;1581;51.568;6.998;2024-03-29T00:23:23;6.57;;;1.60;;
3141;SDS011;1581;51.568;6.998;2024-03-29T00:25:51;1.93;;;1.00;;
3141;SDS011;1581;51.568;6.998;2024-03-29T00:28:17;2.50;;;1.33;;
3141;SDS011;1581;51.568;6.998;2024-03-29T00:30:44;0.97;;;0.80;;
3141;SDS011;1581;51.568;6.998;2024-03-29T00:33:10;5.50;;;0.80;;
3141;SDS011;1581;51.568;6.998;2024-03-29T00:35:36;3.50;;;0.97;;
3141;SDS011;1581;51.568;6.998;2024-03-29T00:38:02;2.13;;;0.80;;
3141;SDS011;1581;51.568;6.998;2024-03-29T00:40:29;0.57;;;0.57;;
3141;SDS011;1581;51.568;6.998;2024-03-29T00:42:56;2.07;;;0.80;;
3141;SDS011;1581;51.568;6.998;2024-03-29T00:45:23;1.70;;;0.70;;
3141;SDS011;1581;51.568;6.998;2024-03-29T00:47:49;1.67;;;0.87;;
3141;SDS011;1581;51.568;6.998;2024-03-29T00:50:15;1.90;;;0.83;;
3141;SDS011;1581;51.568;6.998;2024-03-29T00:52:41;1.80;;;1.00;;
3141;SDS011;1581;51.568;6.998;2024-03-29T00:55:08;15.63;;;1.00;;
3141;SDS011;1581;51.568;6.998;2024-03-29T00:57:34;5.60;;;0.87;;
3141;SDS011;1581;51.568;6.998;2024-03-29T01:00:02;5.40;;;0.80;;
3141;SDS011;1581;51.568;6.998;2024-03-29T01:02:29;2.37;;;0.70;;
3141;SDS011;1581;51.568;6.998;2024-03-29T01:04:55;5.23;;;0.97;;
3141;SDS011;1581;51.568;6.998;2024-03-29T01:07:22;1.00;;;0.77;;
3141;SDS011;1581;51.568;6.998;2024-03-29T01:09:48;2.40;;;0.90;;
3141;SDS011;1581;51.568;6.998;2024-03-29T01:12:15;2.80;;;1.00;;
3141;SDS011;1581;51.568;6.998;2024-03-29T01:14:41;1.90;;;0.93;;
3141;SDS011;1581;51.568;6.998;2024-03-29T01:17:09;3.40;;;0.87;;
3141;SDS011;1581;51.568;6.998;2024-03-29T01:19:35;4.20;;;1.20;;
3141;SDS011;1581;51.568;6.998;2024-03-29T01:22:01;2.37;;;0.70;;
3141;SDS011;1581;51.568;6.998;2024-03-29T01:24:28;4.83;;;0.70;;
3141;SDS011;1581;51.568;6.998;2024-03-29T01:26:54;2.43;;;1.03;;
3141;SDS011;1581;51.568;6.998;2024-03-29T01:29:21;5.07;;;0.93;;
3141;SDS011;1581;51.568;6.998;2024-03-29T01:31:47;2.27;;;1.27;;
3141;SDS011;1581;51.568;6.998;2024-03-29T01:34:14;0.83;;;0.50;;
3141;SDS011;1581;51.568;6.998;2024-03-29T01:36:41;1.50;;;0.83;;
3141;SDS011;1581;51.568;6.998;2024-03-29T01:39:07;4.50;;;1.10;;
3141;SDS011;1581;51.568;6.998;2024-03-29T01:41:33;4.10;;;0.60;;
3141;SDS011;1581;51.568;6.998;2024-03-29T01:44:00;4.83;;;0.80;;
3141;SDS011;1581;51.568;6.998;2024-03-29T01:46:27;3.07;;;0.90;;
3141;SDS011;1581;51.568;6.998;2024-03-29T01:48:54;1.73;;;0.60;;
3141;SDS011;1581;51.568;6.998;2024-03-29T01:51:23;1.47;;;0.80;;
3141;SDS011;1581;51.568;6.998;2024-03-29T01:53:51;2.77;;;0.60;;
3141;SDS011;1581;51.568;6.998;2024-03-29T01:56:20;0.80;;;0.67;;
3141;SDS011;1581;51.568;6.998;2024-03-29T01:58:49;3.70;;;1.30;;
3141;SDS011;1581;51.568;6.998;2024-03-29T02:01:18;1.90;;;0.60;;
3141;SDS011;1581;51.568;6.998;2024-03-29T02:03:46;5.10;;;0.90;;
3141;SDS011;1581;51.568;6.998;2024-03-29T02:06:14;1.27;;;0.60;;
3141;SDS011;1581;51.568;6.998;2024-03-29T02:08:42;3.43;;;0.80;;
3141;SDS011;1581;51.568;6.998;2024-03-29T02:11:09;3.63;;;0.97;;
3141;SDS011;1581;51.568;6.998;2024-03-29T02:13:37;3.53;;;0.80;;
3141;SDS011;1581;51.568;6.998;2024-03-29T02:16:05;2.00;;;0.87;;
3141;SDS011;1581;51.568;6.998;2024-03-29T02:18:32;4.93;;;1.10;;
3141;SDS011;1581;51.568;6.998;2024-03-29T02:20:59;1.40;;;0.63;;
3141;SDS011;1581;51.568;6.998;2024-03-29T02:23:27;2.27;;;0.67;;
3141;SDS011;1581;51.568;6.998;2024-03-29T02:25:59;2.30;;;0.90;;
3141;SDS011;1581;51.568;6.998;2024-03-29T02:28:26;0.73;;;0.60;;
3141;SDS011;1581;51.568;6.998;2024-03-29T02:30:53;1.07;;;0.60;;
3141;SDS011;1581;51.568;6.998;2024-03-29T02:33:22;2.90;;;0.73;;
3141;SDS011;1581;51.568;6.998;2024-03-29T02:35:49;3.73;;;0.70;;
3141;SDS011;1581;51.568;6.998;2024-03-29T02:38:15;1.63;;;0.80;;
3141;SDS011;1581;51.568;6.998;2024-03-29T02:40:42;2.30;;;0.70;;
3141;SDS011;1581;51.568;6.998;2024-03-29T02:43:11;2.67;;;0.90;;
3141;SDS011;1581;51.568;6.998;2024-03-29T02:45:38;2.83;;;1.00;;
3141;SDS011;1581;51.568;6.998;2024-03-29T02:48:04;0.67;;;0.67;;
3141;SDS011;1581;51.568;6.998;2024-03-29T02:50:32;3.50;;;1.00;;
3141;SDS011;1581;51.568;6.998;2024-03-29T02:52:59;0.77;;;0.50;;
3141;SDS011;1581;51.568;6.998;2024-03-29T02:55:26;2.60;;;0.63;;
3141;SDS011;1581;51.568;6.998;2024-03-29T02:57:52;4.63;;;1.33;;
3141;SDS011;1581;51.568;6.998;2024-03-29T03:00:21;4.13;;;0.90;;
3141;SDS011;1581;51.568;6.998;2024-03-29T03:02:47;2.70;;;0.87;;
3141;SDS011;1581;51.568;6.998;2024-03-29T03:05:14;5.83;;;0.93;;
3141;SDS011;1581;51.568;6.998;2024-03-29T03:07:40;2.97;;;0.97;;
3141;SDS011;1581;51.568;6.998;2024-03-29T03:10:25;2.47;;;0.80;;
3141;SDS011;1581;51.568;6.998;2024-03-29T03:13:10;3.10;;;1.00;;
3141;SDS011;1581;51.568;6.998;2024-03-29T03:15:38;1.10;;;0.73;;
3141;SDS011;1581;51.568;6.998;2024-03-29T03:18:05;1.57;;;1.00;;
3141;SDS011;1581;51.568;6.998;2024-03-29T03:20:31;3.53;;;0.70;;
3141;SDS011;1581;51.568;6.998;2024-03-29T03:23:00;2.43;;;0.87;;
3141;SDS011;1581;51.568;6.998;2024-03-29T03:25:26;3.87;;;0.90;;
3141;SDS011;1581;51.568;6.998;2024-03-29T03:27:54;4.13;;;1.50;;
3141;SDS011;1581;51.568;6.998;2024-03-29T03:30:20;2.13;;;1.10;;
3141;SDS011;1581;51.568;6.998;2024-03-29T03:32:49;1.87;;;1.10;;
3141;SDS011;1581;51.568;6.998;2024-03-29T03:35:15;2.23;;;1.00;;
3141;SDS011;1581;51.568;6.998;2024-03-29T03:37:44;1.67;;;1.00;;
3141;SDS011;1581;51.568;6.998;2024-03-29T03:40:10;3.13;;;1.20;;
3141;SDS011;1581;51.568;6.998;2024-03-29T03:42:37;2.30;;;1.03;;
3141;SDS011;1581;51.568;6.998;2024-03-29T03:45:04;1.30;;;0.60;;
3141;SDS011;1581;51.568;6.998;2024-03-29T03:47:31;1.70;;;0.80;;
3141;SDS011;1581;51.568;6.998;2024-03-29T03:49:59;1.90;;;0.77;;
3141;SDS011;1581;51.568;6.998;2024-03-29T03:52:26;0.70;;;0.70;;
3141;SDS011;1581;51.568;6.998;2024-03-29T03:54:52;0.70;;;0.70;;
3141;SDS011;1581;51.568;6.998;2024-03-29T03:57:20;1.03;;;0.77;;
3141;SDS011;1581;51.568;6.998;2024-03-29T03:59:46;2.67;;;0.70;;
3141;SDS011;1581;51.568;6.998;2024-03-29T04:02:15;0.60;;;0.60;;
3141;SDS011;1581;51.568;6.998;2024-03-29T04:04:41;0.50;;;0.50;;
3141;SDS011;1581;51.568;6.998;2024-03-29T04:07:10;3.80;;;0.60;;
3141;SDS011;1581;51.568;6.998;2024-03-29T04:09:36;1.53;;;0.60;;
3141;SDS011;1581;51.568;6.998;2024-03-29T04:12:03;1.77;;;1.20;;
3141;SDS011;1581;51.568;6.998;2024-03-29T04:14:30;2.30;;;0.53;;
3141;SDS011;1581;51.568;6.998;2024-03-29T04:16:57;2.00;;;0.90;;
3141;SDS011;1581;51.568;6.998;2024-03-29T04:19:23;3.87;;;0.70;;
3141;SDS011;1581;51.568;6.998;2024-03-29T04:21:52;0.70;;;0.70;;
3141;SDS011;1581;51.568;6.998;2024-03-29T04:24:19;1.53;;;0.70;;
3141;SDS011;1581;51.568;6.998;2024-03-29T04:26:46;1.57;;;0.90;;
3141;SDS011;1581;51.568;6.998;2024-03-29T04:29:12;4.73;;;1.00;;
3141;SDS011;1581;51.568;6.998;2024-03-29T04:31:40;1.70;;;0.70;;
3141;SDS011;1581;51.568;6.998;2024-03-29T04:34:06;2.10;;;0.83;;
3141;SDS011;1581;51.568;6.998;2024-03-29T04:36:33;2.40;;;0.80;;
3141;SDS011;1581;51.568;6.998;2024-03-29T04:38:59;1.00;;;0.63;;
3141;SDS011;1581;51.568;6.998;2024-03-29T04:41:28;0.97;;;0.70;;
3141;SDS011;1581;51.568;6.998;2024-03-29T04:43:59;4.27;;;1.37;;
3141;SDS011;1581;51.568;6.998;2024-03-29T04:46:26;1.50;;;1.00;;
3141;SDS011;1581;51.568;6.998;2024-03-29T04:48:57;5.33;;;0.80;;
3141;SDS011;1581;51.568;6.998;2024-03-29T04:51:24;2.87;;;0.97;;
3141;SDS011;1581;51.568;6.998;2024-03-29T04:53:51;0.93;;;0.80;;
3141;SDS011;1581;51.568;6.998;2024-03-29T04:56:18;4.10;;;0.90;;
3141;SDS011;1581;51.568;6.998;2024-03-29T04:58:47;3.70;;;0.90;;
3141;SDS011;1581;51.568;6.998;2024-03-29T05:01:14;2.50;;;1.00;;
3141;SDS011;1581;51.568;6.998;2024-03-29T05:03:41;0.80;;;0.63;;
3141;SDS011;1581;51.568;6.998;2024-03-29T05:06:08;2.67;;;1.00;;
3141;SDS011;1581;51.568;6.998;2024-03-29T05:08:36;2.20;;;0.70;;
3141;SDS011;1581;51.568;6.998;2024-03-29T05:11:03;2.70;;;0.93;;
3141;SDS011;1581;51.568;6.998;2024-03-29T05:13:30;1.70;;;0.60;;
3141;SDS011;1581;51.568;6.998;2024-03-29T05:15:59;5.90;;;1.00;;
3141;SDS011;1581;51.568;6.998;2024-03-29T05:18:26;3.13;;;1.33;;
3141;SDS011;1581;51.568;6.998;2024-03-29T05:20:53;2.10;;;0.80;;
3141;SDS011;1581;51.568;6.998;2024-03-29T05:23:20;5.50;;;1.30;;
3141;SDS011;1581;51.568;6.998;2024-03-29T05:25:47;0.80;;;0.63;;
3141;SDS011;1581;51.568;6.998;2024-03-29T05:28:14;2.53;;;1.53;;
3141;SDS011;1581;51.568;6.998;2024-03-29T05:30:42;9.50;;;1.00;;
3141;SDS011;1581;51.568;6.998;2024-03-29T05:33:11;5.43;;;1.70;;
3141;SDS011;1581;51.568;6.998;2024-03-29T05:35:38;4.80;;;1.10;;
3141;SDS011;1581;51.568;6.998;2024-03-29T05:38:05;1.83;;;0.90;;
3141;SDS011;1581;51.568;6.998;2024-03-29T05:40:32;1.27;;;0.70;;
3141;SDS011;1581;51.568;6.998;2024-03-29T05:42:59;2.53;;;0.90;;
3141;SDS011;1581;51.568;6.998;2024-03-29T05:45:27;8.07;;;1.10;;
3141;SDS011;1581;51.568;6.998;2024-03-29T05:47:56;3.50;;;0.97;;
3141;SDS011;1581;51.568;6.998;2024-03-29T05:50:26;1.73;;;1.10;;
3141;SDS011;1581;51.568;6.998;2024-03-29T05:52:54;3.87;;;1.90;;
3141;SDS011;1581;51.568;6.998;2024-03-29T05:55:21;3.77;;;1.80;;
3141;SDS011;1581;51.568;6.998;2024-03-29T05:57:48;4.20;;;1.20;;
3141;SDS011;1581;51.568;6.998;2024-03-29T06:00:16;1.77;;;1.30;;
3141;SDS011;1581;51.568;6.998;2024-03-29T06:02:44;7.60;;;1.20;;
3141;SDS011;1581;51.568;6.998;2024-03-29T06:05:13;4.73;;;1.17;;
3141;SDS011;1581;51.568;6.998;2024-03-29T06:07:41;5.13;;;1.63;;
3141;SDS011;1581;51.568;6.998;2024-03-29T06:10:08;5.80;;;1.70;;
3141;SDS011;1581;51.568;6.998;2024-03-29T06:12:36;3.83;;;1.13;;
3141;SDS011;1581;51.568;6.998;2024-03-29T06:15:04;6.10;;;1.17;;
3141;SDS011;1581;51.568;6.998;2024-03-29T06:17:50;3.90;;;1.10;;
3141;SDS011;1581;51.568;6.998;2024-03-29T06:20:17;6.73;;;1.33;;
3141;SDS011;1581;51.568;6.998;2024-03-29T06:22:46;3.17;;;1.20;;
3141;SDS011;1581;51.568;6.998;2024-03-29T06:25:13;3.87;;;1.60;;
3141;SDS011;1581;51.568;6.998;2024-03-29T06:27:41;1.80;;;1.40;;
3141;SDS011;1581;51.568;6.998;2024-03-29T06:30:12;5.33;;;1.30;;
3141;SDS011;1581;51.568;6.998;2024-03-29T06:32:42;3.93;;;1.93;;
3141;SDS011;1581;51.568;6.998;2024-03-29T06:35:10;3.47;;;1.50;;
3141;SDS011;1581;51.568;6.998;2024-03-29T06:37:37;1.87;;;1.10;;
3141;SDS011;1581;51.568;6.998;2024-03-29T06:40:07;2.83;;;1.20;;
3141;SDS011;1581;51.568;6.998;2024-03-29T06:42:35;2.60;;;1.00;;
3141;SDS011;1581;51.568;6.998;2024-03-29T06:45:03;2.30;;;0.90;;
3141;SDS011;1581;51.568;6.998;2024-03-29T06:47:32;3.50;;;1.00;;
3141;SDS011;1581;51.568;6.998;2024-03-29T06:49:59;4.33;;;1.30;;
3141;SDS011;1581;51.568;6.998;2024-03-29T06:52:26;3.30;;;1.37;;
3141;SDS011;1581;51.568;6.998;2024-03-29T06:54:53;4.83;;;0.93;;
3141;SDS011;1581;51.568;6.998;2024-03-29T06:57:22;6.70;;;0.90;;
3141;SDS011;1581;51.568;6.998;2024-03-29T06:59:51;4.77;;;1.30;;
3141;SDS011;1581;51.568;6.998;2024-03-29T07:02:18;3.50;;;1.70;;
3141;SDS011;1581;51.568;6.998;2024-03-29T07:04:48;3.07;;;1.30;;
3141;SDS011;1581;51.568;6.998;2024-03-29T07:07:16;3.43;;;1.30;;
3141;SDS011;1581;51.568;6.998;2024-03-29T07:09:43;4.13;;;1.40;;
3141;SDS011;1581;51.568;6.998;2024-03-29T07:12:10;4.90;;;1.50;;
3141;SDS011;1581;51.568;6.998;2024-03-29T07:14:38;3.87;;;1.10;;
3141;SDS011;1581;51.568;6.998;2024-03-29T07:17:05;3.90;;;0.80;;
3141;SDS011;1581;51.568;6.998;2024-03-29T07:19:33;3.53;;;1.00;;
3141;SDS011;1581;51.568;6.998;2024-03-29T07:22:00;5.07;;;1.47;;
3141;SDS011;1581;51.568;6.998;2024-03-29T07:24:27;3.43;;;1.30;;
3141;SDS011;1581;51.568;6.998;2024-03-29T07:26:55;1.83;;;1.17;;
3141;SDS011;1581;51.568;6.998;2024-03-29T07:29:22;3.20;;;1.13;;
3141;SDS011;1581;51.568;6.998;2024-03-29T07:31:50;4.10;;;1.43;;
3141;SDS011;1581;51.568;6.998;2024-03-29T07:34:19;4.37;;;1.50;;
3141;SDS011;1581;51.568;6.998;2024-03-29T07:36:46;2.63;;;1.37;;
3141;SDS011;1581;51.568;6.998;2024-03-29T07:39:13;3.60;;;1.17;;
3141;SDS011;1581;51.568;6.998;2024-03-29T07:41:41;2.80;;;1.47;;
3141;SDS011;1581;51.568;6.998;2024-03-29T07:44:08;2.20;;;1.63;;
3141;SDS011;1581;51.568;6.998;2024-03-29T07:46:36;2.87;;;1.30;;
3141;SDS011;1581;51.568;6.998;2024-03-29T07:49:06;3.93;;;1.33;;
3141;SDS011;1581;51.568;6.998;2024-03-29T07:51:34;2.67;;;1.30;;
3141;SDS011;1581;51.568;6.998;2024-03-29T07:54:01;2.93;;;1.07;;
3141;SDS011;1581;51.568;6.998;2024-03-29T07:56:28;3.40;;;2.33;;
3141;SDS011;1581;51.568;6.998;2024-03-29T07:58:56;1.70;;;1.20;;
3141;SDS011;1581;51.568;6.998;2024-03-29T08:01:23;4.10;;;1.77;;
3141;SDS011;1581;51.568;6.998;2024-03-29T08:03:51;5.83;;;1.63;;
3141;SDS011;1581;51.568;6.998;2024-03-29T08:06:20;6.97;;;2.00;;
3141;SDS011;1581;51.568;6.998;2024-03-29T08:08:48;3.00;;;1.73;;
3141;SDS011;1581;51.568;6.998;2024-03-29T08:11:16;7.53;;;2.97;;
3141;SDS011;1581;51.568;6.998;2024-03-29T08:13:43;7.53;;;2.93;;
3141;SDS011;1581;51.568;6.998;2024-03-29T08:16:10;3.60;;;1.70;;
3141;SDS011;1581;51.568;6.998;2024-03-29T08:18:38;4.57;;;1.87;;
3141;SDS011;1581;51.568;6.998;2024-03-29T08:21:05;1.73;;;1.50;;
3141;SDS011;1581;51.568;6.998;2024-03-29T08:23:38;3.53;;;1.80;;
3141;SDS011;1581;51.568;6.998;2024-03-29T08:26:06;8.37;;;2.00;;
3141;SDS011;1581;51.568;6.998;2024-03-29T08:28:33;4.10;;;1.77;;
3141;SDS011;1581;51.568;6.998;2024-03-29T08:31:04;3.03;;;1.40;;
3141;SDS011;1581;51.568;6.998;2024-03-29T08:33:34;2.50;;;1.57;;
3141;SDS011;1581;51.568;6.998;2024-03-29T08:36:03;4.10;;;1.80;;
3141;SDS011;1581;51.568;6.998;2024-03-29T08:38:31;4.00;;;1.83;;
3141;SDS011;1581;51.568;6.998;2024-03-29T08:41:00;1.90;;;1.33;;
3141;SDS011;1581;51.568;6.998;2024-03-29T08:43:27;3.00;;;1.80;;
3141;SDS011;1581;51.568;6.998;2024-03-29T08:45:55;2.00;;;1.47;;
3141;SDS011;1581;51.568;6.998;2024-03-29T08:48:26;1.97;;;1.40;;
3141;SDS011;1581;51.568;6.998;2024-03-29T08:50:53;5.20;;;1.70;;
3141;SDS011;1581;51.568;6.998;2024-03-29T08:53:21;3.80;;;2.30;;
3141;SDS011;1581;51.568;6.998;2024-03-29T08:55:48;3.10;;;1.70;;
3141;SDS011;1581;51.568;6.998;2024-03-29T08:58:16;2.30;;;1.70;;
3141;SDS011;1581;51.568;6.998;2024-03-29T09:00:52;2.87;;;1.53;;
3141;SDS011;1581;51.568;6.998;2024-03-29T09:03:20;2.40;;;1.60;;
3141;SDS011;1581;51.568;6.998;2024-03-29T09:05:48;8.50;;;2.10;;
3141;SDS011;1581;51.568;6.998;2024-03-29T09:08:15;3.87;;;1.77;;
3141;SDS011;1581;51.568;6.998;2024-03-29T09:10:43;1.20;;;1.10;;
3141;SDS011;1581;51.568;6.998;2024-03-29T09:13:10;2.33;;;1.57;;
3141;SDS011;1581;51.568;6.998;2024-03-29T09:15:42;2.80;;;1.90;;
3141;SDS011;1581;51.568;6.998;2024-03-29T09:18:12;8.17;;;2.50;;
3141;SDS011;1581;51.568;6.998;2024-03-29T09:20:55;4.73;;;4.03;;
3141;SDS011;1581;51.568;6.998;2024-03-29T09:23:25;5.90;;;3.17;;
3141;SDS011;1581;51.568;6.998;2024-03-29T09:25:53;3.90;;;2.57;;
3141;SDS011;1581;51.568;6.998;2024-03-29T09:28:21;6.40;;;2.60;;
3141;SDS011;1581;51.568;6.998;2024-03-29T09:30:50;2.77;;;2.40;;
3141;SDS011;1581;51.568;6.998;2024-03-29T09:33:23;3.93;;;2.50;;
3141;SDS011;1581;51.568;6.998;2024-03-29T09:35:54;2.70;;;2.07;;
3141;SDS011;1581;51.568;6.998;2024-03-29T09:38:24;4.80;;;1.83;;
3141;SDS011;1581;51.568;6.998;2024-03-29T09:40:54;2.00;;;1.63;;
3141;SDS011;1581;51.568;6.998;2024-03-29T09:43:30;2.87;;;1.33;;
3141;SDS011;1581;51.568;6.998;2024-03-29T09:45:58;1.90;;;1.10;;
3141;SDS011;1581;51.568;6.998;2024-03-29T09:48:27;4.93;;;1.80;;
3141;SDS011;1581;51.568;6.998;2024-03-29T09:51:01;2.57;;;1.20;;
3141;SDS011;1581;51.568;6.998;2024-03-29T09:53:31;3.27;;;1.53;;
3141;SDS011;1581;51.568;6.998;2024-03-29T09:56:00;3.60;;;1.07;;
3141;SDS011;1581;51.568;6.998;2024-03-29T09:58:30;6.27;;;1.90;;
3141;SDS011;1581;51.568;6.998;2024-03-29T10:00:59;3.00;;;1.20;;
3141;SDS011;1581;51.568;6.998;2024-03-29T10:03:28;1.30;;;1.20;;
3141;SDS011;1581;51.568;6.998;2024-03-29T10:05:56;2.40;;;1.50;;
3141;SDS011;1581;51.568;6.998;2024-03-29T10:08:24;5.23;;;1.40;;
3141;SDS011;1581;51.568;6.998;2024-03-29T10:10:53;3.70;;;1.70;;
3141;SDS011;1581;51.568;6.998;2024-03-29T10:13:21;2.40;;;1.80;;
3141;SDS011;1581;51.568;6.998;2024-03-29T10:15:49;6.87;;;1.80;;
3141;SDS011;1581;51.568;6.998;2024-03-29T10:18:19;4.63;;;1.90;;
3141;SDS011;1581;51.568;6.998;2024-03-29T10:20:47;3.77;;;1.93;;
3141;SDS011;1581;51.568;6.998;2024-03-29T10:23:24;5.63;;;1.70;;
3141;SDS011;1581;51.568;6.998;2024-03-29T10:25:52;2.73;;;1.60;;
3141;SDS011;1581;51.568;6.998;2024-03-29T10:28:19;2.53;;;1.50;;
3141;SDS011;1581;51.568;6.998;2024-03-29T10:30:47;8.57;;;2.10;;
3141;SDS011;1581;51.568;6.998;2024-03-29T10:33:15;3.00;;;1.80;;
3141;SDS011;1581;51.568;6.998;2024-03-29T10:35:44;13.57;;;2.03;;
3141;SDS011;1581;51.568;6.998;2024-03-29T10:38:12;4.30;;;2.43;;
3141;SDS011;1581;51.568;6.998;2024-03-29T10:40:39;6.00;;;2.43;;
3141;SDS011;1581;51.568;6.998;2024-03-29T10:43:08;7.70;;;2.40;;
3141;SDS011;1581;51.568;6.998;2024-03-29T10:45:37;4.90;;;1.87;;
3141;SDS011;1581;51.568;6.998;2024-03-29T10:48:05;3.43;;;2.00;;
3141;SDS011;1581;51.568;6.998;2024-03-29T10:50:35;3.03;;;1.40;;
3141;SDS011;1581;51.568;6.998;2024-03-29T10:53:08;3.33;;;0.90;;
3141;SDS011;1581;51.568;6.998;2024-03-29T10:55:36;1.57;;;1.00;;
3141;SDS011;1581;51.568;6.998;2024-03-29T10:58:04;2.60;;;1.10;;
3141;SDS011;1581;51.568;6.998;2024-03-29T11:00:32;1.60;;;0.90;;
3141;SDS011;1581;51.568;6.998;2024-03-29T11:03:12;3.67;;;1.50;;
3141;SDS011;1581;51.568;6.998;2024-03-29T11:05:44;3.80;;;1.10;;
3141;SDS011;1581;51.568;6.998;2024-03-29T11:08:19;1.70;;;1.17;;
3141;SDS011;1581;51.568;6.998;2024-03-29T11:10:50;0.87;;;0.80;;
3141;SDS011;1581;51.568;6.998;2024-03-29T11:13:24;2.47;;;1.53;;
3141;SDS011;1581;51.568;6.998;2024-03-29T11:15:59;3.10;;;1.17;;
3141;SDS011;1581;51.568;6.998;2024-03-29T11:18:26;0.80;;;0.70;;
3141;SDS011;1581;51.568;6.998;2024-03-29T11:20:59;1.30;;;0.90;;
3141;SDS011;1581;51.568;6.998;2024-03-29T11:23:32;3.67;;;1.33;;
3141;SDS011;1581;51.568;6.998;2024-03-29T11:26:00;1.00;;;0.77;;
3141;SDS011;1581;51.568;6.998;2024-03-29T11:28:29;1.73;;;1.33;;
3141;SDS011;1581;51.568;6.998;2024-03-29T11:30:58;2.10;;;1.00;;
3141;SDS011;1581;51.568;6.998;2024-03-29T11:33:31;1.20;;;1.10;;
3141;SDS011;1581;51.568;6.998;2024-03-29T11:36:00;3.22;;;1.20;;
3141;SDS011;1581;51.568;6.998;2024-03-29T11:38:38;1.40;;;1.30;;
3141;SDS011;1581;51.568;6.998;2024-03-29T11:41:11;1.05;;;0.85;;
3141;SDS011;1581;51.568;6.998;2024-03-29T11:43:40;1.20;;;1.10;;
3141;SDS011;1581;51.568;6.998;2024-03-29T11:46:09;1.60;;;0.95;;
3141;SDS011;1581;51.568;6.998;2024-03-29T11:48:38;4.10;;;1.65;;
3141;SDS011;1581;51.568;6.998;2024-03-29T11:51:07;2.45;;;1.20;;
3141;SDS011;1581;51.568;6.998;2024-03-29T11:53:37;1.20;;;0.90;;
3141;SDS011;1581;51.568;6.998;2024-03-29T11:56:05;0.80;;;0.80;;
3141;SDS011;1581;51.568;6.998;2024-03-29T11:58:33;2.55;;;1.10;;
3141;SDS011;1581;51.568;6.998;2024-03-29T12:01:01;2.53;;;1.30;;
3141;SDS011;1581;51.568;6.998;2024-03-29T12:03:30;1.20;;;1.10;;
3141;SDS011;1581;51.568;6.998;2024-03-29T12:05:59;2.50;;;1.20;;
3141;SDS011;1581;51.568;6.998;2024-03-29T12:08:28;2.27;;;1.30;;
3141;SDS011;1581;51.568;6.998;2024-03-29T12:11:02;1.27;;;1.13;;
3141;SDS011;1581;51.568;6.998;2024-03-29T12:13:35;1.77;;;1.07;;
3141;SDS011;1581;51.568;6.998;2024-03-29T12:16:09;0.93;;;0.83;;
3141;SDS011;1581;51.568;6.998;2024-03-29T12:18:40;2.47;;;1.30;;
3141;SDS011;1581;51.568;6.998;2024-03-29T12:21:09;2.60;;;1.30;;
3141;SDS011;1581;51.568;6.998;2024-03-29T12:23:40;1.30;;;1.20;;
3141;SDS011;1581;51.568;6.998;2024-03-29T12:26:16;5.63;;;1.40;;
3141;SDS011;1581;51.568;6.998;2024-03-29T12:28:47;1.80;;;1.00;;
3141;SDS011;1581;51.568;6.998;2024-03-29T12:31:16;3.73;;;1.43;;
3141;SDS011;1581;51.568;6.998;2024-03-29T12:33:50;1.80;;;0.83;;
3141;SDS011;1581;51.568;6.998;2024-03-29T12:36:22;1.60;;;1.00;;
3141;SDS011;1581;51.568;6.998;2024-03-29T12:38:53;1.00;;;0.90;;
3141;SDS011;1581;51.568;6.998;2024-03-29T12:41:24;1.90;;;1.30;;
3141;SDS011;1581;51.568;6.998;2024-03-29T12:43:53;1.40;;;0.70;;
3141;SDS011;1581;51.568;6.998;2024-03-29T12:46:20;0.90;;;0.80;;
3141;SDS011;1581;51.568;6.998;2024-03-29T12:48:48;1.13;;;0.90;;
3141;SDS011;1581;51.568;6.998;2024-03-29T12:51:24;3.63;;;0.93;;
3141;SDS011;1581;51.568;6.998;2024-03-29T12:53:53;2.70;;;1.30;;
3141;SDS011;1581;51.568;6.998;2024-03-29T12:56:26;1.02;;;1.00;;
3141;SDS011;1581;51.568;6.998;2024-03-29T12:58:54;0.80;;;0.80;;
3141;SDS011;1581;51.568;6.998;2024-03-29T13:01:21;0.63;;;0.63;;
3141;SDS011;1581;51.568;6.998;2024-03-29T13:03:48;2.50;;;0.80;;
3141;SDS011;1581;51.568;6.998;2024-03-29T13:06:16;1.70;;;0.95;;
3141;SDS011;1581;51.568;6.998;2024-03-29T13:08:43;1.50;;;0.70;;
3141;SDS011;1581;51.568;6.998;2024-03-29T13:11:11;1.23;;;0.98;;
3141;SDS011;1581;51.568;6.998;2024-03-29T13:13:39;2.40;;;0.70;;
3141;SDS011;1581;51.568;6.998;2024-03-29T13:16:07;0.73;;;0.70;;
3141;SDS011;1581;51.568;6.998;2024-03-29T13:18:34;2.85;;;0.55;;
3141;SDS011;1581;51.568;6.998;2024-03-29T13:21:02;1.02;;;0.60;;
3141;SDS011;1581;51.568;6.998;2024-03-29T13:23:29;0.98;;;0.60;;
3141;SDS011;1581;51.568;6.998;2024-03-29T13:25:57;2.78;;;0.52;;
3141;SDS011;1581;51.568;6.998;2024-03-29T13:28:25;1.30;;;0.60;;
3141;SDS011;1581;51.568;6.998;2024-03-29T13:30:53;0.95;;;0.60;;
3141;SDS011;1581;51.568;6.998;2024-03-29T13:33:22;2.33;;;0.60;;
3141;SDS011;1581;51.568;6.998;2024-03-29T13:35:52;0.70;;;0.70;;
3141;SDS011;1581;51.568;6.998;2024-03-29T13:38:20;0.50;;;0.50;;
3141;SDS011;1581;51.568;6.998;2024-03-29T13:40:51;1.30;;;0.63;;
3141;SDS011;1581;51.568;6.998;2024-03-29T13:43:19;3.90;;;0.93;;
3141;SDS011;1581;51.568;6.998;2024-03-29T13:45:47;0.82;;;0.60;;
3141;SDS011;1581;51.568;6.998;2024-03-29T13:48:17;1.70;;;0.73;;
3141;SDS011;1581;51.568;6.998;2024-03-29T13:50:44;2.58;;;0.73;;
3141;SDS011;1581;51.568;6.998;2024-03-29T13:53:11;2.30;;;0.60;;
3141;SDS011;1581;51.568;6.998;2024-03-29T13:55:40;2.80;;;0.60;;
3141;SDS011;1581;51.568;6.998;2024-03-29T13:58:07;1.42;;;0.60;;
3141;SDS011;1581;51.568;6.998;2024-03-29T14:00:35;14.15;;;0.70;;
3141;SDS011;1581;51.568;6.998;2024-03-29T14:03:06;1.02;;;0.50;;
3141;SDS011;1581;51.568;6.998;2024-03-29T14:05:35;0.93;;;0.52;;
3141;SDS011;1581;51.568;6.998;2024-03-29T14:08:04;0.93;;;0.57;;
3141;SDS011;1581;51.568;6.998;2024-03-29T14:10:36;4.50;;;0.73;;
3141;SDS011;1581;51.568;6.998;2024-03-29T14:13:04;0.80;;;0.80;;
3141;SDS011;1581;51.568;6.998;2024-03-29T14:15:32;3.20;;;0.87;;
3141;SDS011;1581;51.568;6.998;2024-03-29T14:17:59;2.88;;;0.65;;
3141;SDS011;1581;51.568;6.998;2024-03-29T14:20:30;2.30;;;1.13;;
3141;SDS011;1581;51.568;6.998;2024-03-29T14:22:58;3.50;;;0.77;;
3141;SDS011;1581;51.568;6.998;2024-03-29T14:25:31;0.52;;;0.52;;
3141;SDS011;1581;51.568;6.998;2024-03-29T14:27:59;2.47;;;0.73;;
3141;SDS011;1581;51.568;6.998;2024-03-29T14:30:29;1.23;;;0.50;;
3141;SDS011;1581;51.568;6.998;2024-03-29T14:32:56;0.60;;;0.57;;
3141;SDS011;1581;51.568;6.998;2024-03-29T14:35:27;1.00;;;0.70;;
3141;SDS011;1581;51.568;6.998;2024-03-29T14:37:56;2.53;;;0.60;;
3141;SDS011;1581;51.568;6.998;2024-03-29T14:40:25;0.52;;;0.50;;
3141;SDS011;1581;51.568;6.998;2024-03-29T14:42:53;0.52;;;0.40;;
3141;SDS011;1581;51.568;6.998;2024-03-29T14:45:23;1.05;;;0.60;;
3141;SDS011;1581;51.568;6.998;2024-03-29T14:47:50;0.57;;;0.50;;
3141;SDS011;1581;51.568;6.998;2024-03-29T14:50:18;0.98;;;0.70;;
3141;SDS011;1581;51.568;6.998;2024-03-29T14:52:45;5.25;;;0.80;;
3141;SDS011;1581;51.568;6.998;2024-03-29T14:55:12;2.25;;;0.70;;
3141;SDS011;1581;51.568;6.998;2024-03-29T14:57:41;1.40;;;0.63;;
3141;SDS011;1581;51.568;6.998;2024-03-29T15:00:08;1.55;;;0.70;;
3141;SDS011;1581;51.568;6.998;2024-03-29T15:02:36;1.38;;;1.00;;
3141;SDS011;1581;51.568;6.998;2024-03-29T15:05:04;0.77;;;0.77;;
3141;SDS011;1581;51.568;6.998;2024-03-29T15:07:32;0.70;;;0.70;;
3141;SDS011;1581;51.568;6.998;2024-03-29T15:09:59;0.60;;;0.60;;
3141;SDS011;1581;51.568;6.998;2024-03-29T15:12:30;0.85;;;0.80;;
3141;SDS011;1581;51.568;6.998;2024-03-29T15:14:58;0.70;;;0.70;;
3141;SDS011;1581;51.568;6.998;2024-03-29T15:17:25;0.93;;;0.68;;
3141;SDS011;1581;51.568;6.998;2024-03-29T15:19:52;5.40;;;0.70;;
3141;SDS011;1581;51.568;6.998;2024-03-29T15:22:20;1.02;;;0.68;;